sensor_id;sensor_type;location;lat;lon;timestamp;temperature;humidity
21807;DHT22;11065;50.786;7.840;2023-04-15T00:00:00;8.50;40.20
21807;DHT22;11065;50.786;7.840;2023-04-15T00:02:38;8.50;40.30
21807;DHT22;11065;50.786;7.840;2023-04-15T00:05:07;8.40;40.20
21807;DHT22;11065;50.786;7.840;2023-04-15T00:07:36;8.40;40.30
21807;DHT22;11065;50.786;7.840;2023-04-15T00:10:07;8.30;40.40
21807;DHT22;11065;50.786;7.840;2023-04-15T00:12:35;8.30;40.50
21807;DHT22;11065;50.786;7.840;2023-04-15T00:15:04;8.30;40.50
21807;DHT22;11065;50.786;7.840;2023-04-15T00:17:32;8.20;40.50
21807;DHT22;11065;50.786;7.840;2023-04-15T00:20:00;8.20;40.50
21807;DHT22;11065;50.786;7.840;2023-04-15T00:22:32;8.20;40.60
21807;DHT22;11065;50.786;7.840;2023-04-15T00:25:01;8.10;40.60
21807;DHT22;11065;50.786;7.840;2023-04-15T00:27:29;8.10;40.70
21807;DHT22;11065;50.786;7.840;2023-04-15T00:29:57;8.10;40.80
21807;DHT22;11065;50.786;7.840;2023-04-15T00:32:25;8.10;40.90
21807;DHT22;11065;50.786;7.840;2023-04-15T00:34:54;8.00;40.90
21807;DHT22;11065;50.786;7.840;2023-04-15T00:37:22;7.90;40.90
21807;DHT22;11065;50.786;7.840;2023-04-15T00:39:50;7.90;41.00
21807;DHT22;11065;50.786;7.840;2023-04-15T00:42:20;7.90;41.10
21807;DHT22;11065;50.786;7.840;2023-04-15T00:44:48;7.80;41.10
21807;DHT22;11065;50.786;7.840;2023-04-15T00:47:17;7.80;41.10
21807;DHT22;11065;50.786;7.840;2023-04-15T00:49:46;7.80;41.20
21807;DHT22;11065;50.786;7.840;2023-04-15T00:52:14;7.80;41.30
21807;DHT22;11065;50.786;7.840;2023-04-15T00:54:42;7.70;41.30
21807;DHT22;11065;50.786;7.840;2023-04-15T00:57:10;7.70;41.40
21807;DHT22;11065;50.786;7.840;2023-04-15T00:59:40;7.70;41.40
21807;DHT22;11065;50.786;7.840;2023-04-15T01:02:08;7.60;41.50
21807;DHT22;11065;50.786;7.840;2023-04-15T01:04:37;7.60;41.50
21807;DHT22;11065;50.786;7.840;2023-04-15T01:07:05;7.60;41.60
21807;DHT22;11065;50.786;7.840;2023-04-15T01:09:33;7.50;41.60
21807;DHT22;11065;50.786;7.840;2023-04-15T01:12:01;7.50;41.60
21807;DHT22;11065;50.786;7.840;2023-04-15T01:14:30;7.50;41.60
21807;DHT22;11065;50.786;7.840;2023-04-15T01:17:01;7.40;41.70
21807;DHT22;11065;50.786;7.840;2023-04-15T01:19:29;7.40;41.80
21807;DHT22;11065;50.786;7.840;2023-04-15T01:21:58;7.40;41.80
21807;DHT22;11065;50.786;7.840;2023-04-15T01:24:26;7.40;41.90
21807;DHT22;11065;50.786;7.840;2023-04-15T01:26:56;7.30;41.90
21807;DHT22;11065;50.786;7.840;2023-04-15T01:29:25;7.30;42.00
21807;DHT22;11065;50.786;7.840;2023-04-15T01:31:54;7.30;42.00
21807;DHT22;11065;50.786;7.840;2023-04-15T01:34:25;7.20;42.00
21807;DHT22;11065;50.786;7.840;2023-04-15T01:36:53;7.20;42.00
21807;DHT22;11065;50.786;7.840;2023-04-15T01:39:21;7.20;42.00
21807;DHT22;11065;50.786;7.840;2023-04-15T01:41:49;7.20;42.10
21807;DHT22;11065;50.786;7.840;2023-04-15T01:44:19;7.10;42.10
21807;DHT22;11065;50.786;7.840;2023-04-15T01:46:47;7.10;42.20
21807;DHT22;11065;50.786;7.840;2023-04-15T01:49:15;7.10;42.20
21807;DHT22;11065;50.786;7.840;2023-04-15T01:51:43;7.10;42.20
21807;DHT22;11065;50.786;7.840;2023-04-15T01:54:12;7.10;42.30
21807;DHT22;11065;50.786;7.840;2023-04-15T01:56:40;7.00;42.30
21807;DHT22;11065;50.786;7.840;2023-04-15T01:59:08;7.00;42.40
21807;DHT22;11065;50.786;7.840;2023-04-15T02:01:38;6.90;42.30
21807;DHT22;11065;50.786;7.840;2023-04-15T02:04:06;6.90;42.40
21807;DHT22;11065;50.786;7.840;2023-04-15T02:06:42;6.90;42.50
21807;DHT22;11065;50.786;7.840;2023-04-15T02:09:11;6.90;42.50
21807;DHT22;11065;50.786;7.840;2023-04-15T02:11:39;6.80;42.50
21807;DHT22;11065;50.786;7.840;2023-04-15T02:14:07;6.80;42.50
21807;DHT22;11065;50.786;7.840;2023-04-15T02:16:35;6.80;42.60
21807;DHT22;11065;50.786;7.840;2023-04-15T02:19:04;6.70;42.60
21807;DHT22;11065;50.786;7.840;2023-04-15T02:21:36;6.70;42.60
21807;DHT22;11065;50.786;7.840;2023-04-15T02:24:05;6.70;42.70
21807;DHT22;11065;50.786;7.840;2023-04-15T02:26:33;6.70;42.70
21807;DHT22;11065;50.786;7.840;2023-04-15T02:29:01;6.60;42.70
21807;DHT22;11065;50.786;7.840;2023-04-15T02:31:29;6.60;42.70
21807;DHT22;11065;50.786;7.840;2023-04-15T02:33:59;6.60;42.80
21807;DHT22;11065;50.786;7.840;2023-04-15T02:36:31;6.60;42.90
21807;DHT22;11065;50.786;7.840;2023-04-15T02:39:00;6.50;42.90
21807;DHT22;11065;50.786;7.840;2023-04-15T02:41:29;6.50;42.90
21807;DHT22;11065;50.786;7.840;2023-04-15T02:43:57;6.40;43.00
21807;DHT22;11065;50.786;7.840;2023-04-15T02:46:26;6.40;43.00
21807;DHT22;11065;50.786;7.840;2023-04-15T02:48:55;6.40;43.10
21807;DHT22;11065;50.786;7.840;2023-04-15T02:51:30;6.40;43.20
21807;DHT22;11065;50.786;7.840;2023-04-15T02:53:59;6.30;43.20
21807;DHT22;11065;50.786;7.840;2023-04-15T02:56:27;6.30;43.20
21807;DHT22;11065;50.786;7.840;2023-04-15T02:58:56;6.30;43.20
21807;DHT22;11065;50.786;7.840;2023-04-15T03:01:24;6.30;43.30
21807;DHT22;11065;50.786;7.840;2023-04-15T03:03:53;6.30;43.30
21807;DHT22;11065;50.786;7.840;2023-04-15T03:06:21;6.30;43.40
21807;DHT22;11065;50.786;7.840;2023-04-15T03:08:52;6.20;43.40
21807;DHT22;11065;50.786;7.840;2023-04-15T03:11:20;6.30;43.50
21807;DHT22;11065;50.786;7.840;2023-04-15T03:13:48;6.20;43.50
21807;DHT22;11065;50.786;7.840;2023-04-15T03:16:26;6.20;43.60
21807;DHT22;11065;50.786;7.840;2023-04-15T03:18:54;6.20;43.50
21807;DHT22;11065;50.786;7.840;2023-04-15T03:21:23;6.10;43.40
21807;DHT22;11065;50.786;7.840;2023-04-15T03:23:53;6.10;43.40
21807;DHT22;11065;50.786;7.840;2023-04-15T03:26:24;6.10;43.50
21807;DHT22;11065;50.786;7.840;2023-04-15T03:28:54;6.10;43.50
21807;DHT22;11065;50.786;7.840;2023-04-15T03:31:22;6.10;43.70
21807;DHT22;11065;50.786;7.840;2023-04-15T03:33:50;6.00;43.70
21807;DHT22;11065;50.786;7.840;2023-04-15T03:36:18;6.00;43.70
21807;DHT22;11065;50.786;7.840;2023-04-15T03:38:46;6.00;43.80
21807;DHT22;11065;50.786;7.840;2023-04-15T03:41:16;6.00;43.80
21807;DHT22;11065;50.786;7.840;2023-04-15T03:43:44;5.90;43.80
21807;DHT22;11065;50.786;7.840;2023-04-15T03:46:12;5.90;43.80
21807;DHT22;11065;50.786;7.840;2023-04-15T03:48:40;5.90;43.90
21807;DHT22;11065;50.786;7.840;2023-04-15T03:51:08;5.90;44.00
21807;DHT22;11065;50.786;7.840;2023-04-15T03:53:37;5.80;44.10
21807;DHT22;11065;50.786;7.840;2023-04-15T03:56:05;5.80;44.10
21807;DHT22;11065;50.786;7.840;2023-04-15T03:58:35;5.80;44.10
21807;DHT22;11065;50.786;7.840;2023-04-15T04:01:03;5.80;44.20
21807;DHT22;11065;50.786;7.840;2023-04-15T04:03:32;5.90;44.20
21807;DHT22;11065;50.786;7.840;2023-04-15T04:06:00;5.70;44.20
21807;DHT22;11065;50.786;7.840;2023-04-15T04:08:28;5.80;44.30
21807;DHT22;11065;50.786;7.840;2023-04-15T04:10:56;5.70;44.20
21807;DHT22;11065;50.786;7.840;2023-04-15T04:13:24;5.70;44.30
21807;DHT22;11065;50.786;7.840;2023-04-15T04:15:54;5.70;44.30
21807;DHT22;11065;50.786;7.840;2023-04-15T04:18:22;5.70;44.40
21807;DHT22;11065;50.786;7.840;2023-04-15T04:20:50;5.70;44.40
21807;DHT22;11065;50.786;7.840;2023-04-15T04:23:18;5.70;44.50
21807;DHT22;11065;50.786;7.840;2023-04-15T04:25:46;5.70;44.50
21807;DHT22;11065;50.786;7.840;2023-04-15T04:28:14;5.70;44.50
21807;DHT22;11065;50.786;7.840;2023-04-15T04:30:42;5.70;44.60
21807;DHT22;11065;50.786;7.840;2023-04-15T04:33:12;5.80;44.70
21807;DHT22;11065;50.786;7.840;2023-04-15T04:35:40;5.70;44.70
21807;DHT22;11065;50.786;7.840;2023-04-15T04:38:08;5.70;44.70
21807;DHT22;11065;50.786;7.840;2023-04-15T04:40:36;5.70;44.70
21807;DHT22;11065;50.786;7.840;2023-04-15T04:43:04;5.70;44.70
21807;DHT22;11065;50.786;7.840;2023-04-15T04:45:32;5.70;44.80
21807;DHT22;11065;50.786;7.840;2023-04-15T04:48:00;5.70;44.80
21807;DHT22;11065;50.786;7.840;2023-04-15T04:50:34;5.70;44.90
21807;DHT22;11065;50.786;7.840;2023-04-15T04:53:03;5.70;44.90
21807;DHT22;11065;50.786;7.840;2023-04-15T04:55:31;5.70;44.90
21807;DHT22;11065;50.786;7.840;2023-04-15T04:57:59;5.70;45.00
21807;DHT22;11065;50.786;7.840;2023-04-15T05:00:27;5.70;45.00
21807;DHT22;11065;50.786;7.840;2023-04-15T05:02:55;5.70;45.00
21807;DHT22;11065;50.786;7.840;2023-04-15T05:05:24;5.70;45.10
21807;DHT22;11065;50.786;7.840;2023-04-15T05:07:54;5.70;45.10
21807;DHT22;11065;50.786;7.840;2023-04-15T05:10:22;5.70;45.60
21807;DHT22;11065;50.786;7.840;2023-04-15T05:12:50;5.70;45.20
21807;DHT22;11065;50.786;7.840;2023-04-15T05:15:18;5.70;45.20
21807;DHT22;11065;50.786;7.840;2023-04-15T05:17:47;5.70;45.30
21807;DHT22;11065;50.786;7.840;2023-04-15T05:20:15;5.70;45.30
21807;DHT22;11065;50.786;7.840;2023-04-15T05:22:43;5.70;45.30
21807;DHT22;11065;50.786;7.840;2023-04-15T05:25:13;5.80;45.40
21807;DHT22;11065;50.786;7.840;2023-04-15T05:27:41;5.80;45.40
21807;DHT22;11065;50.786;7.840;2023-04-15T05:30:10;5.70;45.40
21807;DHT22;11065;50.786;7.840;2023-04-15T05:32:39;5.80;45.60
21807;DHT22;11065;50.786;7.840;2023-04-15T05:35:07;5.70;45.40
21807;DHT22;11065;50.786;7.840;2023-04-15T05:37:35;5.70;45.50
21807;DHT22;11065;50.786;7.840;2023-04-15T05:40:04;5.80;45.60
21807;DHT22;11065;50.786;7.840;2023-04-15T05:42:34;5.80;45.60
21807;DHT22;11065;50.786;7.840;2023-04-15T05:45:03;5.80;45.70
21807;DHT22;11065;50.786;7.840;2023-04-15T05:47:34;5.80;45.70
21807;DHT22;11065;50.786;7.840;2023-04-15T05:50:03;5.80;45.70
21807;DHT22;11065;50.786;7.840;2023-04-15T05:52:32;5.80;45.80
21807;DHT22;11065;50.786;7.840;2023-04-15T05:55:00;5.90;45.80
21807;DHT22;11065;50.786;7.840;2023-04-15T05:57:29;5.90;45.90
21807;DHT22;11065;50.786;7.840;2023-04-15T05:59:58;5.90;46.00
21807;DHT22;11065;50.786;7.840;2023-04-15T06:02:35;6.00;46.10
21807;DHT22;11065;50.786;7.840;2023-04-15T06:05:04;6.00;46.10
21807;DHT22;11065;50.786;7.840;2023-04-15T06:07:35;6.10;46.20
21807;DHT22;11065;50.786;7.840;2023-04-15T06:10:05;6.10;46.10
21807;DHT22;11065;50.786;7.840;2023-04-15T06:12:33;6.10;46.20
21807;DHT22;11065;50.786;7.840;2023-04-15T06:15:03;6.20;46.20
21807;DHT22;11065;50.786;7.840;2023-04-15T06:17:32;6.30;46.30
21807;DHT22;11065;50.786;7.840;2023-04-15T06:20:00;6.30;46.30
21807;DHT22;11065;50.786;7.840;2023-04-15T06:22:28;6.40;46.50
21807;DHT22;11065;50.786;7.840;2023-04-15T06:24:56;6.40;46.70
21807;DHT22;11065;50.786;7.840;2023-04-15T06:27:24;6.50;46.70
21807;DHT22;11065;50.786;7.840;2023-04-15T06:29:52;6.50;46.60
21807;DHT22;11065;50.786;7.840;2023-04-15T06:32:22;6.60;46.90
21807;DHT22;11065;50.786;7.840;2023-04-15T06:34:50;6.60;46.70
21807;DHT22;11065;50.786;7.840;2023-04-15T06:37:18;6.70;46.70
21807;DHT22;11065;50.786;7.840;2023-04-15T06:39:46;6.80;46.60
21807;DHT22;11065;50.786;7.840;2023-04-15T06:42:14;6.80;46.60
21807;DHT22;11065;50.786;7.840;2023-04-15T06:44:42;6.90;46.50
21807;DHT22;11065;50.786;7.840;2023-04-15T06:47:10;6.90;46.40
21807;DHT22;11065;50.786;7.840;2023-04-15T06:49:41;7.00;46.40
21807;DHT22;11065;50.786;7.840;2023-04-15T06:52:10;7.10;46.40
21807;DHT22;11065;50.786;7.840;2023-04-15T06:54:38;7.20;46.30
21807;DHT22;11065;50.786;7.840;2023-04-15T06:57:06;7.20;46.30
21807;DHT22;11065;50.786;7.840;2023-04-15T06:59:35;7.20;46.50
21807;DHT22;11065;50.786;7.840;2023-04-15T07:02:03;7.30;46.70
21807;DHT22;11065;50.786;7.840;2023-04-15T07:04:31;7.40;47.00
21807;DHT22;11065;50.786;7.840;2023-04-15T07:07:00;7.50;46.80
21807;DHT22;11065;50.786;7.840;2023-04-15T07:09:29;7.50;46.70
21807;DHT22;11065;50.786;7.840;2023-04-15T07:11:58;7.60;46.70
21807;DHT22;11065;50.786;7.840;2023-04-15T07:14:26;7.70;46.70
21807;DHT22;11065;50.786;7.840;2023-04-15T07:16:55;7.80;46.60
21807;DHT22;11065;50.786;7.840;2023-04-15T07:19:23;7.90;46.70
21807;DHT22;11065;50.786;7.840;2023-04-15T07:21:51;7.90;46.70
21807;DHT22;11065;50.786;7.840;2023-04-15T07:24:21;8.00;46.70
21807;DHT22;11065;50.786;7.840;2023-04-15T07:26:52;8.10;46.80
21807;DHT22;11065;50.786;7.840;2023-04-15T07:29:23;8.20;47.30
21807;DHT22;11065;50.786;7.840;2023-04-15T07:31:51;8.30;47.40
21807;DHT22;11065;50.786;7.840;2023-04-15T07:34:19;8.40;47.60
21807;DHT22;11065;50.786;7.840;2023-04-15T07:36:47;8.60;47.40
21807;DHT22;11065;50.786;7.840;2023-04-15T07:39:16;8.70;47.30
21807;DHT22;11065;50.786;7.840;2023-04-15T07:41:45;8.80;47.40
21807;DHT22;11065;50.786;7.840;2023-04-15T07:44:14;9.00;47.30
21807;DHT22;11065;50.786;7.840;2023-04-15T07:46:43;9.10;47.30
21807;DHT22;11065;50.786;7.840;2023-04-15T07:49:11;9.20;47.20
21807;DHT22;11065;50.786;7.840;2023-04-15T07:51:39;9.40;47.20
21807;DHT22;11065;50.786;7.840;2023-04-15T07:54:07;9.60;47.20
21807;DHT22;11065;50.786;7.840;2023-04-15T07:56:35;9.80;47.20
21807;DHT22;11065;50.786;7.840;2023-04-15T07:59:04;10.00;47.10
21807;DHT22;11065;50.786;7.840;2023-04-15T08:01:32;10.20;47.00
21807;DHT22;11065;50.786;7.840;2023-04-15T08:04:00;10.40;46.80
21807;DHT22;11065;50.786;7.840;2023-04-15T08:06:29;10.50;46.80
21807;DHT22;11065;50.786;7.840;2023-04-15T08:08:57;10.70;46.90
21807;DHT22;11065;50.786;7.840;2023-04-15T08:11:26;10.90;47.00
21807;DHT22;11065;50.786;7.840;2023-04-15T08:13:54;11.10;47.10
21807;DHT22;11065;50.786;7.840;2023-04-15T08:16:24;11.30;47.10
21807;DHT22;11065;50.786;7.840;2023-04-15T08:18:55;11.60;47.00
21807;DHT22;11065;50.786;7.840;2023-04-15T08:21:23;11.80;46.90
21807;DHT22;11065;50.786;7.840;2023-04-15T08:23:52;12.00;46.80
21807;DHT22;11065;50.786;7.840;2023-04-15T08:26:21;12.20;46.70
21807;DHT22;11065;50.786;7.840;2023-04-15T08:28:49;12.40;46.60
21807;DHT22;11065;50.786;7.840;2023-04-15T08:31:17;12.60;46.40
21807;DHT22;11065;50.786;7.840;2023-04-15T08:33:47;12.80;46.30
21807;DHT22;11065;50.786;7.840;2023-04-15T08:36:18;13.10;46.30
21807;DHT22;11065;50.786;7.840;2023-04-15T08:38:46;13.40;46.30
21807;DHT22;11065;50.786;7.840;2023-04-15T08:41:19;13.80;46.10
21807;DHT22;11065;50.786;7.840;2023-04-15T08:43:51;14.20;45.60
21807;DHT22;11065;50.786;7.840;2023-04-15T08:46:20;14.40;44.90
21807;DHT22;11065;50.786;7.840;2023-04-15T08:48:51;14.60;44.40
21807;DHT22;11065;50.786;7.840;2023-04-15T08:51:23;14.80;44.00
21807;DHT22;11065;50.786;7.840;2023-04-15T08:53:52;14.90;43.70
21807;DHT22;11065;50.786;7.840;2023-04-15T08:56:23;14.90;43.50
21807;DHT22;11065;50.786;7.840;2023-04-15T08:58:52;14.90;43.30
21807;DHT22;11065;50.786;7.840;2023-04-15T09:01:20;14.90;43.10
21807;DHT22;11065;50.786;7.840;2023-04-15T09:03:50;14.90;42.80
21807;DHT22;11065;50.786;7.840;2023-04-15T09:06:19;14.90;42.70
21807;DHT22;11065;50.786;7.840;2023-04-15T09:08:48;14.90;42.60
21807;DHT22;11065;50.786;7.840;2023-04-15T09:11:16;14.80;42.50
21807;DHT22;11065;50.786;7.840;2023-04-15T09:13:46;14.80;42.40
21807;DHT22;11065;50.786;7.840;2023-04-15T09:16:14;14.80;42.40
21807;DHT22;11065;50.786;7.840;2023-04-15T09:18:43;14.70;42.40
21807;DHT22;11065;50.786;7.840;2023-04-15T09:21:14;14.70;42.50
21807;DHT22;11065;50.786;7.840;2023-04-15T09:23:53;14.70;42.60
21807;DHT22;11065;50.786;7.840;2023-04-15T09:26:30;14.70;42.60
21807;DHT22;11065;50.786;7.840;2023-04-15T09:29:06;14.70;42.60
21807;DHT22;11065;50.786;7.840;2023-04-15T09:31:35;14.70;42.80
21807;DHT22;11065;50.786;7.840;2023-04-15T09:34:04;14.80;42.90
21807;DHT22;11065;50.786;7.840;2023-04-15T09:36:51;14.80;42.90
21807;DHT22;11065;50.786;7.840;2023-04-15T09:39:20;15.00;42.90
21807;DHT22;11065;50.786;7.840;2023-04-15T09:42:04;15.10;42.90
21807;DHT22;11065;50.786;7.840;2023-04-15T09:44:33;15.10;42.70
21807;DHT22;11065;50.786;7.840;2023-04-15T09:47:02;15.20;42.70
21807;DHT22;11065;50.786;7.840;2023-04-15T09:49:30;15.30;42.60
21807;DHT22;11065;50.786;7.840;2023-04-15T09:52:01;15.30;42.50
21807;DHT22;11065;50.786;7.840;2023-04-15T09:54:33;15.30;42.40
21807;DHT22;11065;50.786;7.840;2023-04-15T09:57:06;15.40;42.40
21807;DHT22;11065;50.786;7.840;2023-04-15T09:59:35;15.40;42.30
21807;DHT22;11065;50.786;7.840;2023-04-15T10:02:04;15.40;42.30
21807;DHT22;11065;50.786;7.840;2023-04-15T10:04:35;15.50;42.40
21807;DHT22;11065;50.786;7.840;2023-04-15T10:07:07;15.60;42.50
21807;DHT22;11065;50.786;7.840;2023-04-15T10:09:37;15.70;42.70
21807;DHT22;11065;50.786;7.840;2023-04-15T10:12:05;15.90;42.80
21807;DHT22;11065;50.786;7.840;2023-04-15T10:14:34;16.10;42.90
21807;DHT22;11065;50.786;7.840;2023-04-15T10:17:05;16.30;42.80
21807;DHT22;11065;50.786;7.840;2023-04-15T10:19:36;16.40;42.50
21807;DHT22;11065;50.786;7.840;2023-04-15T10:22:04;16.60;42.40
21807;DHT22;11065;50.786;7.840;2023-04-15T10:24:34;16.70;41.90
21807;DHT22;11065;50.786;7.840;2023-04-15T10:27:04;16.80;42.00
21807;DHT22;11065;50.786;7.840;2023-04-15T10:29:33;16.90;41.90
21807;DHT22;11065;50.786;7.840;2023-04-15T10:32:02;17.10;42.20
21807;DHT22;11065;50.786;7.840;2023-04-15T10:34:31;17.30;42.20
21807;DHT22;11065;50.786;7.840;2023-04-15T10:37:01;17.50;41.80
21807;DHT22;11065;50.786;7.840;2023-04-15T10:39:41;17.60;41.70
21807;DHT22;11065;50.786;7.840;2023-04-15T10:42:11;17.70;41.30
21807;DHT22;11065;50.786;7.840;2023-04-15T10:44:42;17.90;41.40
21807;DHT22;11065;50.786;7.840;2023-04-15T10:47:11;17.90;41.00
21807;DHT22;11065;50.786;7.840;2023-04-15T10:49:44;17.80;40.60
21807;DHT22;11065;50.786;7.840;2023-04-15T10:52:14;17.70;40.30
21807;DHT22;11065;50.786;7.840;2023-04-15T10:54:44;17.70;40.20
21807;DHT22;11065;50.786;7.840;2023-04-15T10:57:16;17.50;40.00
21807;DHT22;11065;50.786;7.840;2023-04-15T11:00:08;17.40;40.00
21807;DHT22;11065;50.786;7.840;2023-04-15T11:02:45;17.20;40.10
21807;DHT22;11065;50.786;7.840;2023-04-15T11:05:15;17.00;40.30
21807;DHT22;11065;50.786;7.840;2023-04-15T11:07:52;16.90;40.40
21807;DHT22;11065;50.786;7.840;2023-04-15T11:10:52;16.80;40.40
21807;DHT22;11065;50.786;7.840;2023-04-15T11:13:27;16.70;40.60
21807;DHT22;11065;50.786;7.840;2023-04-15T11:15:58;16.60;40.70
21807;DHT22;11065;50.786;7.840;2023-04-15T11:18:29;16.50;40.80
21807;DHT22;11065;50.786;7.840;2023-04-15T11:21:00;16.40;40.80
21807;DHT22;11065;50.786;7.840;2023-04-15T11:23:35;16.40;40.90
21807;DHT22;11065;50.786;7.840;2023-04-15T11:26:06;16.20;40.90
21807;DHT22;11065;50.786;7.840;2023-04-15T11:28:38;16.10;41.00
21807;DHT22;11065;50.786;7.840;2023-04-15T11:31:09;16.00;41.20
21807;DHT22;11065;50.786;7.840;2023-04-15T11:33:43;16.00;41.30
21807;DHT22;11065;50.786;7.840;2023-04-15T11:36:12;15.90;41.40
21807;DHT22;11065;50.786;7.840;2023-04-15T11:38:45;15.90;41.50
21807;DHT22;11065;50.786;7.840;2023-04-15T11:41:19;15.90;41.70
21807;DHT22;11065;50.786;7.840;2023-04-15T11:43:48;15.80;41.70
21807;DHT22;11065;50.786;7.840;2023-04-15T11:46:16;15.80;41.70
21807;DHT22;11065;50.786;7.840;2023-04-15T11:48:46;15.70;41.80
21807;DHT22;11065;50.786;7.840;2023-04-15T11:51:14;15.60;41.90
21807;DHT22;11065;50.786;7.840;2023-04-15T11:53:43;15.60;42.00
21807;DHT22;11065;50.786;7.840;2023-04-15T11:56:17;15.50;42.10
21807;DHT22;11065;50.786;7.840;2023-04-15T11:58:47;15.50;42.20
21807;DHT22;11065;50.786;7.840;2023-04-15T12:01:17;15.50;42.20
21807;DHT22;11065;50.786;7.840;2023-04-15T12:03:46;15.50;42.30
21807;DHT22;11065;50.786;7.840;2023-04-15T12:06:17;15.40;42.50
21807;DHT22;11065;50.786;7.840;2023-04-15T12:09:07;15.50;42.60
21807;DHT22;11065;50.786;7.840;2023-04-15T12:11:39;15.40;43.10
21807;DHT22;11065;50.786;7.840;2023-04-15T12:14:10;15.40;42.90
21807;DHT22;11065;50.786;7.840;2023-04-15T12:16:40;15.40;43.10
21807;DHT22;11065;50.786;7.840;2023-04-15T12:19:17;15.40;43.20
21807;DHT22;11065;50.786;7.840;2023-04-15T12:21:46;15.40;43.30
21807;DHT22;11065;50.786;7.840;2023-04-15T12:24:19;15.40;43.30
21807;DHT22;11065;50.786;7.840;2023-04-15T12:26:51;15.40;43.50
21807;DHT22;11065;50.786;7.840;2023-04-15T12:29:24;15.30;43.50
21807;DHT22;11065;50.786;7.840;2023-04-15T12:31:54;15.30;43.70
21807;DHT22;11065;50.786;7.840;2023-04-15T12:34:27;15.30;43.90
21807;DHT22;11065;50.786;7.840;2023-04-15T12:36:57;15.30;44.00
21807;DHT22;11065;50.786;7.840;2023-04-15T12:39:26;15.20;44.10
21807;DHT22;11065;50.786;7.840;2023-04-15T12:41:58;15.20;44.20
21807;DHT22;11065;50.786;7.840;2023-04-15T12:44:27;15.10;44.40
21807;DHT22;11065;50.786;7.840;2023-04-15T12:46:56;15.20;44.60
21807;DHT22;11065;50.786;7.840;2023-04-15T12:49:26;15.10;44.50
21807;DHT22;11065;50.786;7.840;2023-04-15T12:51:55;15.00;44.60
21807;DHT22;11065;50.786;7.840;2023-04-15T12:54:25;15.00;44.70
21807;DHT22;11065;50.786;7.840;2023-04-15T12:56:54;15.00;44.80
21807;DHT22;11065;50.786;7.840;2023-04-15T12:59:23;14.90;45.00
21807;DHT22;11065;50.786;7.840;2023-04-15T13:01:53;14.90;45.20
21807;DHT22;11065;50.786;7.840;2023-04-15T13:04:21;14.90;45.20
21807;DHT22;11065;50.786;7.840;2023-04-15T13:06:50;14.90;45.20
21807;DHT22;11065;50.786;7.840;2023-04-15T13:09:18;14.90;45.40
21807;DHT22;11065;50.786;7.840;2023-04-15T13:11:46;14.90;45.40
21807;DHT22;11065;50.786;7.840;2023-04-15T13:14:14;14.90;45.50
21807;DHT22;11065;50.786;7.840;2023-04-15T13:16:44;14.80;45.50
21807;DHT22;11065;50.786;7.840;2023-04-15T13:19:12;14.80;45.80
21807;DHT22;11065;50.786;7.840;2023-04-15T13:21:40;14.80;45.70
21807;DHT22;11065;50.786;7.840;2023-04-15T13:24:08;14.80;45.80
21807;DHT22;11065;50.786;7.840;2023-04-15T13:26:36;14.80;45.90
21807;DHT22;11065;50.786;7.840;2023-04-15T13:29:04;14.80;45.90
21807;DHT22;11065;50.786;7.840;2023-04-15T13:31:32;14.80;45.90
21807;DHT22;11065;50.786;7.840;2023-04-15T13:34:02;14.80;45.70
21807;DHT22;11065;50.786;7.840;2023-04-15T13:36:30;14.70;45.80
21807;DHT22;11065;50.786;7.840;2023-04-15T13:38:58;14.60;45.70
21807;DHT22;11065;50.786;7.840;2023-04-15T13:41:26;14.60;45.80
21807;DHT22;11065;50.786;7.840;2023-04-15T13:43:54;14.60;46.00
21807;DHT22;11065;50.786;7.840;2023-04-15T13:46:24;14.50;45.90
21807;DHT22;11065;50.786;7.840;2023-04-15T13:48:52;14.50;46.00
21807;DHT22;11065;50.786;7.840;2023-04-15T13:51:21;14.50;46.10
21807;DHT22;11065;50.786;7.840;2023-04-15T13:53:49;14.50;46.10
21807;DHT22;11065;50.786;7.840;2023-04-15T13:56:17;14.40;46.50
21807;DHT22;11065;50.786;7.840;2023-04-15T13:58:46;14.40;47.00
21807;DHT22;11065;50.786;7.840;2023-04-15T14:01:14;14.30;46.80
21807;DHT22;11065;50.786;7.840;2023-04-15T14:03:42;14.20;46.60
21807;DHT22;11065;50.786;7.840;2023-04-15T14:06:10;14.20;46.70
21807;DHT22;11065;50.786;7.840;2023-04-15T14:08:40;14.20;46.90
21807;DHT22;11065;50.786;7.840;2023-04-15T14:11:08;14.20;46.90
21807;DHT22;11065;50.786;7.840;2023-04-15T14:13:36;14.20;46.90
21807;DHT22;11065;50.786;7.840;2023-04-15T14:16:05;14.20;46.90
21807;DHT22;11065;50.786;7.840;2023-04-15T14:18:33;14.10;46.90
21807;DHT22;11065;50.786;7.840;2023-04-15T14:21:01;14.10;46.90
21807;DHT22;11065;50.786;7.840;2023-04-15T14:23:29;14.10;47.00
21807;DHT22;11065;50.786;7.840;2023-04-15T14:25:59;14.10;47.00
21807;DHT22;11065;50.786;7.840;2023-04-15T14:28:27;14.10;47.10
21807;DHT22;11065;50.786;7.840;2023-04-15T14:30:55;14.00;47.10
21807;DHT22;11065;50.786;7.840;2023-04-15T14:33:23;14.00;47.40
21807;DHT22;11065;50.786;7.840;2023-04-15T14:35:51;14.00;47.40
21807;DHT22;11065;50.786;7.840;2023-04-15T14:38:19;13.90;47.30
21807;DHT22;11065;50.786;7.840;2023-04-15T14:40:48;13.90;47.40
21807;DHT22;11065;50.786;7.840;2023-04-15T14:43:17;13.90;47.40
21807;DHT22;11065;50.786;7.840;2023-04-15T14:45:46;13.90;47.50
21807;DHT22;11065;50.786;7.840;2023-04-15T14:48:15;13.80;47.40
21807;DHT22;11065;50.786;7.840;2023-04-15T14:50:43;13.90;47.70
21807;DHT22;11065;50.786;7.840;2023-04-15T14:53:10;13.80;47.70
21807;DHT22;11065;50.786;7.840;2023-04-15T14:55:38;13.80;47.70
21807;DHT22;11065;50.786;7.840;2023-04-15T14:58:07;13.80;47.80
21807;DHT22;11065;50.786;7.840;2023-04-15T15:00:38;13.80;48.00
21807;DHT22;11065;50.786;7.840;2023-04-15T15:03:10;13.80;48.20
21807;DHT22;11065;50.786;7.840;2023-04-15T15:05:40;13.70;48.10
21807;DHT22;11065;50.786;7.840;2023-04-15T15:08:08;13.70;48.00
21807;DHT22;11065;50.786;7.840;2023-04-15T15:10:37;13.70;48.00
21807;DHT22;11065;50.786;7.840;2023-04-15T15:13:16;13.70;48.20
21807;DHT22;11065;50.786;7.840;2023-04-15T15:15:46;13.70;48.30
21807;DHT22;11065;50.786;7.840;2023-04-15T15:18:15;13.70;48.30
21807;DHT22;11065;50.786;7.840;2023-04-15T15:20:45;13.60;48.30
21807;DHT22;11065;50.786;7.840;2023-04-15T15:23:13;13.60;48.30
21807;DHT22;11065;50.786;7.840;2023-04-15T15:25:42;13.60;48.30
21807;DHT22;11065;50.786;7.840;2023-04-15T15:28:11;13.60;48.40
21807;DHT22;11065;50.786;7.840;2023-04-15T15:30:39;13.60;48.30
21807;DHT22;11065;50.786;7.840;2023-04-15T15:33:08;13.60;48.30
21807;DHT22;11065;50.786;7.840;2023-04-15T15:35:36;13.60;48.30
21807;DHT22;11065;50.786;7.840;2023-04-15T15:38:05;13.50;48.20
21807;DHT22;11065;50.786;7.840;2023-04-15T15:40:33;13.50;48.30
21807;DHT22;11065;50.786;7.840;2023-04-15T15:43:01;13.40;48.50
21807;DHT22;11065;50.786;7.840;2023-04-15T15:45:29;13.40;48.70
21807;DHT22;11065;50.786;7.840;2023-04-15T15:47:57;13.30;48.60
21807;DHT22;11065;50.786;7.840;2023-04-15T15:50:27;13.30;48.70